Main page
METAR-TAF:

METAR-TAF

Airports :

Cavern City Air Terminal

Carlsbad, New Mexico, United States

latitude: 32-20-15N, longitude: 104-15-48W, elevation: 3293 ft

Current weather observation

The report was made 30 minutes ago, at 15:53 UTC
Wind 10 mph from the South with gusts up to 21 mph
Temperature 82°F
Humidity 51%
Pressure 29.99 in. Hg
Visibility: 10 miles
Clear sky

METAR: KCNM 151553Z AUTO 18009G18KT 10SM CLR 28/17 A2999 RMK AO2 SLP090 T02830172

Time: 10:23 (16:23 UTC)

Forecast

The report was made 5 hours and 3 minutes ago, at 11:20 UTC
Forecast valid from 15 at 12 UTC to 16 at 12 UTC
Wind 10 mph from the Southeast
Visibility: 6 miles
Clear sky
From 15 at 1900 UTC
Wind 16 mph from the Southeast with gusts up to 23 mph
Visibility: 6 miles
Scattered clouds at a height of 8000 ft
Scattered clouds at a height of 25000 ft
From 16 at 0200 UTC
Wind 13 mph from the South/Southeast
Visibility: 6 miles
Clear sky

TAF: KCNM 151120Z 1512/1612 13009KT P6SM SKC FM151900 14014G20KT P6SM SCT080 SCT250 FM160200 15011KT P6SM SKC

Weather observations and forecasts of more than 4000 airports (METAR and TAF reports).

The available stations are represented by yellow and red dots on the map.

Hover mouse over dot to see the name of the station.

Then click to see weather observations and forecasts.

To change the map : click on the green buttons with a black cross to zoom in, on the green button with a dash to zoom out, or on the green arrows for adjacent maps.


METAR-TAF: